sensor_id;sensor_type;location;lat;lon;timestamp;P1;durP1;ratioP1;P2;durP2;ratioP2
41514;SDS011;27247;48.020;16.720;2023-02-28T00:02:15;34.90;;;16.05;;
41514;SDS011;27247;48.020;16.720;2023-02-28T00:06:27;25.23;;;13.88;;
41514;SDS011;27247;48.020;16.720;2023-02-28T00:10:38;24.83;;;12.10;;
41514;SDS011;27247;48.020;16.720;2023-02-28T00:14:49;25.15;;;12.65;;
41514;SDS011;27247;48.020;16.720;2023-02-28T00:18:59;20.65;;;11.77;;
41514;SDS011;27247;48.020;16.720;2023-02-28T00:23:09;22.97;;;12.30;;
41514;SDS011;27247;48.020;16.720;2023-02-28T00:27:20;27.00;;;12.50;;
41514;SDS011;27247;48.020;16.720;2023-02-28T00:31:30;24.70;;;13.07;;
41514;SDS011;27247;48.020;16.720;2023-02-28T00:35:40;24.60;;;11.97;;
41514;SDS011;27247;48.020;16.720;2023-02-28T00:39:51;26.00;;;13.27;;
41514;SDS011;27247;48.020;16.720;2023-02-28T00:44:01;22.70;;;11.07;;
41514;SDS011;27247;48.020;16.720;2023-02-28T00:48:11;25.17;;;12.50;;
41514;SDS011;27247;48.020;16.720;2023-02-28T00:52:22;26.93;;;11.90;;
41514;SDS011;27247;48.020;16.720;2023-02-28T00:56:32;25.02;;;12.18;;
41514;SDS011;27247;48.020;16.720;2023-02-28T01:00:42;22.00;;;12.15;;
41514;SDS011;27247;48.020;16.720;2023-02-28T01:04:53;24.13;;;12.63;;
41514;SDS011;27247;48.020;16.720;2023-02-28T01:09:04;24.80;;;12.90;;
41514;SDS011;27247;48.020;16.720;2023-02-28T01:13:15;29.15;;;14.43;;
41514;SDS011;27247;48.020;16.720;2023-02-28T01:17:26;28.70;;;14.68;;
41514;SDS011;27247;48.020;16.720;2023-02-28T01:21:36;24.30;;;12.02;;
41514;SDS011;27247;48.020;16.720;2023-02-28T01:25:46;25.27;;;12.85;;
41514;SDS011;27247;48.020;16.720;2023-02-28T01:29:57;25.10;;;13.60;;
41514;SDS011;27247;48.020;16.720;2023-02-28T01:34:07;31.23;;;13.00;;
41514;SDS011;27247;48.020;16.720;2023-02-28T01:38:17;22.53;;;12.43;;
41514;SDS011;27247;48.020;16.720;2023-02-28T01:42:28;22.10;;;12.23;;
41514;SDS011;27247;48.020;16.720;2023-02-28T01:46:38;23.05;;;11.77;;
41514;SDS011;27247;48.020;16.720;2023-02-28T01:50:48;27.15;;;12.43;;
41514;SDS011;27247;48.020;16.720;2023-02-28T01:55:00;29.63;;;14.45;;
41514;SDS011;27247;48.020;16.720;2023-02-28T01:59:15;22.50;;;12.30;;
41514;SDS011;27247;48.020;16.720;2023-02-28T02:03:32;23.60;;;13.20;;
41514;SDS011;27247;48.020;16.720;2023-02-28T02:07:43;30.45;;;12.43;;
41514;SDS011;27247;48.020;16.720;2023-02-28T02:11:55;25.17;;;12.40;;
41514;SDS011;27247;48.020;16.720;2023-02-28T02:25:11;26.65;;;12.13;;
41514;SDS011;27247;48.020;16.720;2023-02-28T02:30:00;25.90;;;13.25;;
41514;SDS011;27247;48.020;16.720;2023-02-28T02:34:40;27.23;;;12.88;;
41514;SDS011;27247;48.020;16.720;2023-02-28T02:43:29;25.63;;;11.90;;
41514;SDS011;27247;48.020;16.720;2023-02-28T02:47:45;34.10;;;13.05;;
41514;SDS011;27247;48.020;16.720;2023-02-28T02:51:57;25.63;;;12.43;;
41514;SDS011;27247;48.020;16.720;2023-02-28T02:56:11;27.33;;;12.85;;
41514;SDS011;27247;48.020;16.720;2023-02-28T03:00:25;24.17;;;12.98;;
41514;SDS011;27247;48.020;16.720;2023-02-28T03:04:42;28.00;;;13.73;;
41514;SDS011;27247;48.020;16.720;2023-02-28T03:08:56;28.90;;;13.48;;
41514;SDS011;27247;48.020;16.720;2023-02-28T03:13:12;25.20;;;12.95;;
41514;SDS011;27247;48.020;16.720;2023-02-28T03:17:48;29.92;;;14.68;;
41514;SDS011;27247;48.020;16.720;2023-02-28T03:22:20;25.15;;;13.85;;
41514;SDS011;27247;48.020;16.720;2023-02-28T03:27:07;26.27;;;13.63;;
41514;SDS011;27247;48.020;16.720;2023-02-28T03:31:25;24.83;;;13.23;;
41514;SDS011;27247;48.020;16.720;2023-02-28T03:35:42;28.52;;;12.65;;
41514;SDS011;27247;48.020;16.720;2023-02-28T03:39:59;28.13;;;13.18;;
41514;SDS011;27247;48.020;16.720;2023-02-28T03:44:18;25.55;;;12.18;;
41514;SDS011;27247;48.020;16.720;2023-02-28T03:48:37;31.13;;;14.93;;
41514;SDS011;27247;48.020;16.720;2023-02-28T03:52:55;24.67;;;12.70;;
41514;SDS011;27247;48.020;16.720;2023-02-28T03:57:40;25.25;;;13.13;;
41514;SDS011;27247;48.020;16.720;2023-02-28T04:01:53;23.98;;;12.30;;
41514;SDS011;27247;48.020;16.720;2023-02-28T04:06:06;25.70;;;12.73;;
41514;SDS011;27247;48.020;16.720;2023-02-28T04:10:18;29.67;;;14.13;;
41514;SDS011;27247;48.020;16.720;2023-02-28T04:14:28;25.40;;;13.00;;
41514;SDS011;27247;48.020;16.720;2023-02-28T04:18:39;25.50;;;12.68;;
41514;SDS011;27247;48.020;16.720;2023-02-28T04:22:50;29.15;;;14.93;;
41514;SDS011;27247;48.020;16.720;2023-02-28T04:27:00;25.45;;;13.80;;
41514;SDS011;27247;48.020;16.720;2023-02-28T04:31:10;30.17;;;13.38;;
41514;SDS011;27247;48.020;16.720;2023-02-28T04:35:21;27.67;;;14.38;;
41514;SDS011;27247;48.020;16.720;2023-02-28T04:39:34;27.58;;;13.57;;
41514;SDS011;27247;48.020;16.720;2023-02-28T04:43:45;27.60;;;14.38;;
41514;SDS011;27247;48.020;16.720;2023-02-28T04:47:56;29.35;;;14.00;;
41514;SDS011;27247;48.020;16.720;2023-02-28T04:52:06;30.30;;;14.53;;
41514;SDS011;27247;48.020;16.720;2023-02-28T04:56:18;33.58;;;14.23;;
41514;SDS011;27247;48.020;16.720;2023-02-28T05:00:28;27.63;;;13.32;;
41514;SDS011;27247;48.020;16.720;2023-02-28T05:04:39;26.02;;;12.32;;
41514;SDS011;27247;48.020;16.720;2023-02-28T05:08:49;29.73;;;12.55;;
41514;SDS011;27247;48.020;16.720;2023-02-28T05:13:00;22.85;;;12.02;;
41514;SDS011;27247;48.020;16.720;2023-02-28T05:17:11;27.88;;;13.07;;
41514;SDS011;27247;48.020;16.720;2023-02-28T05:21:26;31.20;;;13.55;;
41514;SDS011;27247;48.020;16.720;2023-02-28T05:25:40;31.10;;;13.63;;
41514;SDS011;27247;48.020;16.720;2023-02-28T05:29:51;29.98;;;13.77;;
41514;SDS011;27247;48.020;16.720;2023-02-28T05:34:01;47.97;;;19.83;;
41514;SDS011;27247;48.020;16.720;2023-02-28T05:38:14;49.28;;;19.98;;
41514;SDS011;27247;48.020;16.720;2023-02-28T05:42:24;44.33;;;19.60;;
41514;SDS011;27247;48.020;16.720;2023-02-28T05:46:34;44.38;;;16.90;;
41514;SDS011;27247;48.020;16.720;2023-02-28T05:50:45;27.33;;;14.68;;
41514;SDS011;27247;48.020;16.720;2023-02-28T05:54:56;33.00;;;14.48;;
41514;SDS011;27247;48.020;16.720;2023-02-28T05:59:06;57.85;;;25.35;;
41514;SDS011;27247;48.020;16.720;2023-02-28T06:03:16;53.00;;;22.30;;
41514;SDS011;27247;48.020;16.720;2023-02-28T06:07:27;42.35;;;21.33;;
41514;SDS011;27247;48.020;16.720;2023-02-28T06:11:37;40.65;;;20.10;;
41514;SDS011;27247;48.020;16.720;2023-02-28T06:15:48;37.60;;;15.73;;
41514;SDS011;27247;48.020;16.720;2023-02-28T06:19:58;28.83;;;13.85;;
41514;SDS011;27247;48.020;16.720;2023-02-28T06:24:08;31.80;;;17.08;;
41514;SDS011;27247;48.020;16.720;2023-02-28T06:28:19;32.92;;;17.20;;
41514;SDS011;27247;48.020;16.720;2023-02-28T06:32:30;35.78;;;15.25;;
41514;SDS011;27247;48.020;16.720;2023-02-28T06:36:41;32.83;;;17.08;;
41514;SDS011;27247;48.020;16.720;2023-02-28T06:40:55;27.23;;;15.50;;
41514;SDS011;27247;48.020;16.720;2023-02-28T06:45:07;35.50;;;16.73;;
41514;SDS011;27247;48.020;16.720;2023-02-28T06:49:19;29.85;;;16.35;;
41514;SDS011;27247;48.020;16.720;2023-02-28T06:53:29;40.30;;;19.02;;
41514;SDS011;27247;48.020;16.720;2023-02-28T06:57:39;36.47;;;17.35;;
41514;SDS011;27247;48.020;16.720;2023-02-28T07:01:50;36.58;;;17.80;;
41514;SDS011;27247;48.020;16.720;2023-02-28T07:06:00;35.15;;;16.52;;
41514;SDS011;27247;48.020;16.720;2023-02-28T07:10:12;34.45;;;17.60;;
41514;SDS011;27247;48.020;16.720;2023-02-28T07:14:25;38.90;;;18.08;;
41514;SDS011;27247;48.020;16.720;2023-02-28T07:18:36;37.17;;;17.38;;
41514;SDS011;27247;48.020;16.720;2023-02-28T07:22:47;34.85;;;16.73;;
41514;SDS011;27247;48.020;16.720;2023-02-28T07:27:05;36.35;;;18.02;;
41514;SDS011;27247;48.020;16.720;2023-02-28T07:31:15;31.23;;;16.23;;
41514;SDS011;27247;48.020;16.720;2023-02-28T07:35:27;31.60;;;16.63;;
41514;SDS011;27247;48.020;16.720;2023-02-28T07:39:37;36.03;;;16.83;;
41514;SDS011;27247;48.020;16.720;2023-02-28T07:43:47;35.42;;;18.48;;
41514;SDS011;27247;48.020;16.720;2023-02-28T07:47:58;29.73;;;16.75;;
41514;SDS011;27247;48.020;16.720;2023-02-28T07:52:08;35.80;;;17.23;;
41514;SDS011;27247;48.020;16.720;2023-02-28T07:56:18;33.83;;;17.00;;
41514;SDS011;27247;48.020;16.720;2023-02-28T08:00:29;37.83;;;19.07;;
41514;SDS011;27247;48.020;16.720;2023-02-28T08:04:40;38.35;;;17.58;;
41514;SDS011;27247;48.020;16.720;2023-02-28T08:08:51;41.00;;;17.65;;
41514;SDS011;27247;48.020;16.720;2023-02-28T08:13:03;38.22;;;17.88;;
41514;SDS011;27247;48.020;16.720;2023-02-28T08:17:13;33.80;;;17.90;;
41514;SDS011;27247;48.020;16.720;2023-02-28T08:21:23;36.70;;;18.77;;
41514;SDS011;27247;48.020;16.720;2023-02-28T08:25:34;35.23;;;17.67;;
41514;SDS011;27247;48.020;16.720;2023-02-28T08:29:44;36.03;;;17.77;;
41514;SDS011;27247;48.020;16.720;2023-02-28T08:33:54;34.63;;;18.30;;
41514;SDS011;27247;48.020;16.720;2023-02-28T08:38:08;38.13;;;17.15;;
41514;SDS011;27247;48.020;16.720;2023-02-28T08:42:18;40.67;;;18.77;;
41514;SDS011;27247;48.020;16.720;2023-02-28T08:46:29;33.70;;;17.75;;
41514;SDS011;27247;48.020;16.720;2023-02-28T08:50:39;32.75;;;17.40;;
41514;SDS011;27247;48.020;16.720;2023-02-28T08:54:49;35.17;;;18.70;;
41514;SDS011;27247;48.020;16.720;2023-02-28T08:59:00;34.83;;;16.75;;
41514;SDS011;27247;48.020;16.720;2023-02-28T09:03:10;32.73;;;16.93;;
41514;SDS011;27247;48.020;16.720;2023-02-28T09:07:20;32.70;;;16.67;;
41514;SDS011;27247;48.020;16.720;2023-02-28T09:11:31;33.58;;;16.42;;
41514;SDS011;27247;48.020;16.720;2023-02-28T09:15:42;34.30;;;17.75;;
41514;SDS011;27247;48.020;16.720;2023-02-28T09:19:52;30.83;;;16.45;;
41514;SDS011;27247;48.020;16.720;2023-02-28T09:24:02;29.87;;;16.60;;
41514;SDS011;27247;48.020;16.720;2023-02-28T09:28:13;29.05;;;15.30;;
41514;SDS011;27247;48.020;16.720;2023-02-28T09:32:26;30.40;;;15.60;;
41514;SDS011;27247;48.020;16.720;2023-02-28T09:36:37;33.83;;;16.55;;
41514;SDS011;27247;48.020;16.720;2023-02-28T09:40:51;31.77;;;16.63;;
41514;SDS011;27247;48.020;16.720;2023-02-28T09:45:11;23.83;;;13.90;;
41514;SDS011;27247;48.020;16.720;2023-02-28T09:49:39;29.90;;;14.02;;
41514;SDS011;27247;48.020;16.720;2023-02-28T09:53:52;21.77;;;13.45;;
41514;SDS011;27247;48.020;16.720;2023-02-28T09:58:03;24.05;;;13.45;;
41514;SDS011;27247;48.020;16.720;2023-02-28T10:06:36;27.88;;;14.73;;
41514;SDS011;27247;48.020;16.720;2023-02-28T10:10:55;28.67;;;15.40;;
41514;SDS011;27247;48.020;16.720;2023-02-28T10:15:13;25.42;;;13.57;;
41514;SDS011;27247;48.020;16.720;2023-02-28T10:19:26;28.30;;;13.57;;
41514;SDS011;27247;48.020;16.720;2023-02-28T10:23:43;23.48;;;13.48;;
41514;SDS011;27247;48.020;16.720;2023-02-28T10:28:00;22.95;;;13.68;;
41514;SDS011;27247;48.020;16.720;2023-02-28T10:32:20;26.85;;;14.25;;
41514;SDS011;27247;48.020;16.720;2023-02-28T10:36:33;25.45;;;13.23;;
41514;SDS011;27247;48.020;16.720;2023-02-28T10:40:44;26.02;;;13.70;;
41514;SDS011;27247;48.020;16.720;2023-02-28T10:49:28;25.25;;;14.07;;
41514;SDS011;27247;48.020;16.720;2023-02-28T10:57:52;27.45;;;13.43;;
41514;SDS011;27247;48.020;16.720;2023-02-28T11:02:14;20.48;;;12.18;;
41514;SDS011;27247;48.020;16.720;2023-02-28T11:07:33;21.15;;;12.63;;
41514;SDS011;27247;48.020;16.720;2023-02-28T11:11:28;22.85;;;13.35;;
41514;SDS011;27247;48.020;16.720;2023-02-28T11:15:41;21.98;;;12.63;;
41514;SDS011;27247;48.020;16.720;2023-02-28T11:19:52;22.30;;;13.32;;
41514;SDS011;27247;48.020;16.720;2023-02-28T11:24:07;18.05;;;10.63;;
41514;SDS011;27247;48.020;16.720;2023-02-28T11:28:27;21.52;;;11.38;;
41514;SDS011;27247;48.020;16.720;2023-02-28T11:32:37;22.77;;;11.95;;
41514;SDS011;27247;48.020;16.720;2023-02-28T11:36:59;17.35;;;10.10;;
41514;SDS011;27247;48.020;16.720;2023-02-28T11:45:54;17.10;;;9.48;;
41514;SDS011;27247;48.020;16.720;2023-02-28T12:08:51;22.45;;;12.32;;
41514;SDS011;27247;48.020;16.720;2023-02-28T12:13:21;25.65;;;12.63;;
41514;SDS011;27247;48.020;16.720;2023-02-28T12:26:36;19.25;;;11.90;;
41514;SDS011;27247;48.020;16.720;2023-02-28T12:31:00;20.20;;;12.98;;
41514;SDS011;27247;48.020;16.720;2023-02-28T12:35:19;19.80;;;13.07;;
41514;SDS011;27247;48.020;16.720;2023-02-28T12:39:39;24.85;;;12.73;;
41514;SDS011;27247;48.020;16.720;2023-02-28T12:43:57;20.73;;;11.35;;
41514;SDS011;27247;48.020;16.720;2023-02-28T12:49:00;22.47;;;13.50;;
41514;SDS011;27247;48.020;16.720;2023-02-28T12:52:50;20.85;;;11.85;;
41514;SDS011;27247;48.020;16.720;2023-02-28T13:11:02;21.08;;;12.18;;
41514;SDS011;27247;48.020;16.720;2023-02-28T13:19:27;19.40;;;12.40;;
41514;SDS011;27247;48.020;16.720;2023-02-28T13:27:56;25.45;;;12.10;;
41514;SDS011;27247;48.020;16.720;2023-02-28T13:40:29;19.47;;;12.83;;
41514;SDS011;27247;48.020;16.720;2023-02-28T14:06:54;25.67;;;14.45;;
41514;SDS011;27247;48.020;16.720;2023-02-28T14:11:08;28.15;;;14.55;;
41514;SDS011;27247;48.020;16.720;2023-02-28T14:19:51;21.57;;;14.50;;
41514;SDS011;27247;48.020;16.720;2023-02-28T14:24:13;19.88;;;13.95;;
41514;SDS011;27247;48.020;16.720;2023-02-28T14:37:40;19.88;;;12.77;;
41514;SDS011;27247;48.020;16.720;2023-02-28T14:41:52;23.75;;;13.57;;
41514;SDS011;27247;48.020;16.720;2023-02-28T14:46:03;23.85;;;14.40;;
41514;SDS011;27247;48.020;16.720;2023-02-28T14:50:23;24.95;;;13.98;;
41514;SDS011;27247;48.020;16.720;2023-02-28T14:54:39;21.55;;;13.65;;
41514;SDS011;27247;48.020;16.720;2023-02-28T14:58:51;20.08;;;12.70;;
41514;SDS011;27247;48.020;16.720;2023-02-28T15:03:39;16.98;;;11.07;;
41514;SDS011;27247;48.020;16.720;2023-02-28T15:07:47;18.08;;;11.70;;
41514;SDS011;27247;48.020;16.720;2023-02-28T15:11:58;18.17;;;11.52;;
41514;SDS011;27247;48.020;16.720;2023-02-28T15:16:13;19.15;;;11.90;;
41514;SDS011;27247;48.020;16.720;2023-02-28T15:20:29;18.92;;;11.88;;
41514;SDS011;27247;48.020;16.720;2023-02-28T15:29:03;18.83;;;11.40;;
41514;SDS011;27247;48.020;16.720;2023-02-28T15:41:37;20.20;;;11.10;;
41514;SDS011;27247;48.020;16.720;2023-02-28T15:45:58;22.77;;;11.82;;
41514;SDS011;27247;48.020;16.720;2023-02-28T15:50:12;19.90;;;11.23;;
41514;SDS011;27247;48.020;16.720;2023-02-28T15:54:26;21.67;;;11.65;;
41514;SDS011;27247;48.020;16.720;2023-02-28T15:58:43;17.13;;;10.23;;
41514;SDS011;27247;48.020;16.720;2023-02-28T16:02:53;21.77;;;11.10;;
41514;SDS011;27247;48.020;16.720;2023-02-28T16:07:05;31.02;;;13.73;;
41514;SDS011;27247;48.020;16.720;2023-02-28T16:11:22;25.08;;;14.18;;
41514;SDS011;27247;48.020;16.720;2023-02-28T16:15:35;22.38;;;12.98;;
41514;SDS011;27247;48.020;16.720;2023-02-28T16:19:52;23.65;;;13.32;;
41514;SDS011;27247;48.020;16.720;2023-02-28T16:24:03;25.38;;;13.68;;
41514;SDS011;27247;48.020;16.720;2023-02-28T16:28:19;23.85;;;13.13;;
41514;SDS011;27247;48.020;16.720;2023-02-28T16:32:34;25.48;;;14.40;;
41514;SDS011;27247;48.020;16.720;2023-02-28T16:36:46;25.48;;;14.32;;
41514;SDS011;27247;48.020;16.720;2023-02-28T16:40:58;27.20;;;13.50;;
41514;SDS011;27247;48.020;16.720;2023-02-28T16:45:43;28.65;;;14.40;;
41514;SDS011;27247;48.020;16.720;2023-02-28T16:49:47;24.42;;;13.77;;
41514;SDS011;27247;48.020;16.720;2023-02-28T16:53:58;27.45;;;13.80;;
41514;SDS011;27247;48.020;16.720;2023-02-28T16:58:12;27.02;;;14.15;;
41514;SDS011;27247;48.020;16.720;2023-02-28T17:02:24;27.27;;;14.00;;
41514;SDS011;27247;48.020;16.720;2023-02-28T17:06:35;27.80;;;14.13;;
41514;SDS011;27247;48.020;16.720;2023-02-28T17:10:45;26.33;;;14.00;;
41514;SDS011;27247;48.020;16.720;2023-02-28T17:14:56;23.85;;;13.48;;
41514;SDS011;27247;48.020;16.720;2023-02-28T17:19:09;31.73;;;13.52;;
41514;SDS011;27247;48.020;16.720;2023-02-28T17:23:21;27.38;;;14.05;;
41514;SDS011;27247;48.020;16.720;2023-02-28T17:27:32;30.70;;;14.98;;
41514;SDS011;27247;48.020;16.720;2023-02-28T17:31:43;26.80;;;14.45;;
41514;SDS011;27247;48.020;16.720;2023-02-28T17:35:54;24.67;;;13.60;;
41514;SDS011;27247;48.020;16.720;2023-02-28T17:40:05;23.88;;;12.60;;
41514;SDS011;27247;48.020;16.720;2023-02-28T17:44:17;27.50;;;13.90;;
41514;SDS011;27247;48.020;16.720;2023-02-28T17:48:28;25.38;;;13.52;;
41514;SDS011;27247;48.020;16.720;2023-02-28T17:52:38;22.92;;;13.18;;
41514;SDS011;27247;48.020;16.720;2023-02-28T17:56:49;21.83;;;13.75;;
41514;SDS011;27247;48.020;16.720;2023-02-28T18:01:01;22.65;;;13.38;;
41514;SDS011;27247;48.020;16.720;2023-02-28T18:05:11;25.90;;;13.65;;
41514;SDS011;27247;48.020;16.720;2023-02-28T18:09:22;22.25;;;12.52;;
41514;SDS011;27247;48.020;16.720;2023-02-28T18:13:32;39.33;;;19.45;;
41514;SDS011;27247;48.020;16.720;2023-02-28T18:17:43;30.58;;;17.38;;
41514;SDS011;27247;48.020;16.720;2023-02-28T18:21:54;30.73;;;15.50;;
41514;SDS011;27247;48.020;16.720;2023-02-28T18:26:07;31.63;;;15.88;;
41514;SDS011;27247;48.020;16.720;2023-02-28T18:30:19;34.38;;;17.50;;
41514;SDS011;27247;48.020;16.720;2023-02-28T18:34:30;29.15;;;16.05;;
41514;SDS011;27247;48.020;16.720;2023-02-28T18:38:41;23.40;;;15.40;;
41514;SDS011;27247;48.020;16.720;2023-02-28T18:42:53;36.53;;;17.65;;
41514;SDS011;27247;48.020;16.720;2023-02-28T18:47:04;29.25;;;17.30;;
41514;SDS011;27247;48.020;16.720;2023-02-28T18:51:16;31.48;;;16.83;;
41514;SDS011;27247;48.020;16.720;2023-02-28T18:55:32;28.33;;;15.85;;
41514;SDS011;27247;48.020;16.720;2023-02-28T18:59:43;31.05;;;17.17;;
41514;SDS011;27247;48.020;16.720;2023-02-28T19:03:54;33.72;;;17.40;;
41514;SDS011;27247;48.020;16.720;2023-02-28T19:08:06;34.05;;;17.00;;
41514;SDS011;27247;48.020;16.720;2023-02-28T19:12:16;28.27;;;15.40;;
41514;SDS011;27247;48.020;16.720;2023-02-28T19:16:29;29.42;;;16.23;;
41514;SDS011;27247;48.020;16.720;2023-02-28T19:20:40;34.85;;;17.38;;
41514;SDS011;27247;48.020;16.720;2023-02-28T19:24:51;52.42;;;22.85;;
41514;SDS011;27247;48.020;16.720;2023-02-28T19:29:02;36.25;;;17.35;;
41514;SDS011;27247;48.020;16.720;2023-02-28T19:33:14;28.13;;;15.70;;
41514;SDS011;27247;48.020;16.720;2023-02-28T19:37:25;27.38;;;15.25;;
41514;SDS011;27247;48.020;16.720;2023-02-28T19:41:36;25.80;;;13.95;;
41514;SDS011;27247;48.020;16.720;2023-02-28T19:45:47;26.48;;;13.07;;
41514;SDS011;27247;48.020;16.720;2023-02-28T19:49:58;22.40;;;13.10;;
41514;SDS011;27247;48.020;16.720;2023-02-28T19:54:08;31.23;;;16.73;;
41514;SDS011;27247;48.020;16.720;2023-02-28T19:58:19;31.10;;;16.63;;
41514;SDS011;27247;48.020;16.720;2023-02-28T20:02:30;32.03;;;14.88;;
41514;SDS011;27247;48.020;16.720;2023-02-28T20:06:41;28.30;;;15.05;;
41514;SDS011;27247;48.020;16.720;2023-02-28T20:10:52;27.27;;;15.02;;
41514;SDS011;27247;48.020;16.720;2023-02-28T20:15:03;28.30;;;14.68;;
41514;SDS011;27247;48.020;16.720;2023-02-28T20:19:14;40.08;;;19.27;;
41514;SDS011;27247;48.020;16.720;2023-02-28T20:23:26;37.03;;;19.63;;
41514;SDS011;27247;48.020;16.720;2023-02-28T20:27:39;37.17;;;19.02;;
41514;SDS011;27247;48.020;16.720;2023-02-28T20:31:52;34.53;;;17.27;;
41514;SDS011;27247;48.020;16.720;2023-02-28T20:36:03;36.53;;;18.88;;
41514;SDS011;27247;48.020;16.720;2023-02-28T20:40:14;35.53;;;17.50;;
41514;SDS011;27247;48.020;16.720;2023-02-28T20:44:25;28.08;;;14.43;;
41514;SDS011;27247;48.020;16.720;2023-02-28T20:48:36;27.00;;;15.10;;
41514;SDS011;27247;48.020;16.720;2023-02-28T20:52:48;27.80;;;14.70;;
41514;SDS011;27247;48.020;16.720;2023-02-28T20:57:00;34.20;;;17.13;;
41514;SDS011;27247;48.020;16.720;2023-02-28T21:01:12;30.38;;;16.05;;
41514;SDS011;27247;48.020;16.720;2023-02-28T21:05:26;32.65;;;15.50;;
41514;SDS011;27247;48.020;16.720;2023-02-28T21:09:37;28.85;;;14.85;;
41514;SDS011;27247;48.020;16.720;2023-02-28T21:13:47;32.55;;;14.27;;
41514;SDS011;27247;48.020;16.720;2023-02-28T21:18:00;28.95;;;15.77;;
41514;SDS011;27247;48.020;16.720;2023-02-28T21:22:11;29.70;;;14.75;;
41514;SDS011;27247;48.020;16.720;2023-02-28T21:26:23;34.17;;;16.58;;
41514;SDS011;27247;48.020;16.720;2023-02-28T21:30:35;32.72;;;16.20;;
41514;SDS011;27247;48.020;16.720;2023-02-28T21:34:45;31.98;;;14.45;;
41514;SDS011;27247;48.020;16.720;2023-02-28T21:38:56;31.88;;;14.60;;
41514;SDS011;27247;48.020;16.720;2023-02-28T21:43:09;29.52;;;13.93;;
41514;SDS011;27247;48.020;16.720;2023-02-28T21:47:19;28.92;;;13.43;;
41514;SDS011;27247;48.020;16.720;2023-02-28T21:51:30;28.65;;;14.68;;
41514;SDS011;27247;48.020;16.720;2023-02-28T21:55:40;35.50;;;14.85;;
41514;SDS011;27247;48.020;16.720;2023-02-28T21:59:51;28.63;;;14.77;;
41514;SDS011;27247;48.020;16.720;2023-02-28T22:04:01;34.20;;;16.05;;
41514;SDS011;27247;48.020;16.720;2023-02-28T22:08:14;35.17;;;17.48;;
41514;SDS011;27247;48.020;16.720;2023-02-28T22:12:24;37.92;;;18.48;;
41514;SDS011;27247;48.020;16.720;2023-02-28T22:16:34;32.10;;;16.85;;
41514;SDS011;27247;48.020;16.720;2023-02-28T22:20:52;40.13;;;18.45;;
41514;SDS011;27247;48.020;16.720;2023-02-28T22:25:04;44.17;;;17.65;;
41514;SDS011;27247;48.020;16.720;2023-02-28T22:29:15;38.75;;;18.30;;
41514;SDS011;27247;48.020;16.720;2023-02-28T22:33:25;34.65;;;19.40;;
41514;SDS011;27247;48.020;16.720;2023-02-28T22:37:36;39.30;;;20.15;;
41514;SDS011;27247;48.020;16.720;2023-02-28T22:41:47;42.38;;;19.15;;
41514;SDS011;27247;48.020;16.720;2023-02-28T22:46:04;44.40;;;21.15;;
41514;SDS011;27247;48.020;16.720;2023-02-28T22:50:16;48.03;;;20.88;;
41514;SDS011;27247;48.020;16.720;2023-02-28T22:54:27;49.15;;;22.70;;
41514;SDS011;27247;48.020;16.720;2023-02-28T22:58:37;54.58;;;24.15;;
41514;SDS011;27247;48.020;16.720;2023-02-28T23:02:47;42.40;;;21.13;;
41514;SDS011;27247;48.020;16.720;2023-02-28T23:06:58;46.95;;;22.95;;
41514;SDS011;27247;48.020;16.720;2023-02-28T23:11:08;58.28;;;24.42;;
41514;SDS011;27247;48.020;16.720;2023-02-28T23:15:20;43.92;;;21.55;;
41514;SDS011;27247;48.020;16.720;2023-02-28T23:19:32;49.90;;;21.58;;
41514;SDS011;27247;48.020;16.720;2023-02-28T23:23:42;50.83;;;21.40;;
41514;SDS011;27247;48.020;16.720;2023-02-28T23:27:52;41.47;;;21.70;;
41514;SDS011;27247;48.020;16.720;2023-02-28T23:32:03;43.45;;;22.45;;
41514;SDS011;27247;48.020;16.720;2023-02-28T23:36:15;47.92;;;21.85;;
41514;SDS011;27247;48.020;16.720;2023-02-28T23:40:26;38.92;;;18.80;;
41514;SDS011;27247;48.020;16.720;2023-02-28T23:44:36;32.42;;;16.95;;
41514;SDS011;27247;48.020;16.720;2023-02-28T23:48:46;32.95;;;17.88;;
41514;SDS011;27247;48.020;16.720;2023-02-28T23:52:57;40.65;;;20.05;;
41514;SDS011;27247;48.020;16.720;2023-02-28T23:57:07;44.25;;;21.23;;
